Time;durP1;ratioP1;P1;durP2;ratioP2;P2;SDS_P1;SDS_P2;PMS_P1;PMS_P2;Temp;Humidity;BMP_temperature;BMP_pressure;BME280_temperature;BME280_humidity;BME280_pressure;Samples;Min_cycle;Max_cycle;Signal;HPM_P1;HPM_P2
2022/03/10 00:00:06;;;;;;;6.72;3.08;;;8.80;99.90;;;;;;4863293;29;20124;-89
2022/03/10 00:02:33;;;;;;;12.15;3.55;;;8.80;99.90;;;;;;4864750;29;20125;-90
2022/03/10 00:04:59;;;;;;;13.65;4.65;;;8.80;99.90;;;;;;4870840;29;20042;-90
2022/03/10 00:07:25;;;;;;;11.07;4.18;;;8.80;99.90;;;;;;4873564;29;20062;-89
2022/03/10 00:09:53;;;;;;;11.90;4.45;;;8.90;99.90;;;;;;4869366;29;20040;-89
2022/03/10 00:12:19;;;;;;;10.77;3.90;;;8.90;99.90;;;;;;4864400;29;20030;-90
2022/03/10 00:14:48;;;;;;;14.90;4.20;;;8.80;99.90;;;;;;4863212;29;20032;-91
2022/03/10 00:17:14;;;;;;;15.30;3.53;;;8.80;99.90;;;;;;4862139;29;20069;-90
2022/03/10 00:19:39;;;;;;;9.80;3.50;;;8.90;99.90;;;;;;4864271;29;20029;-90
2022/03/10 00:22:06;;;;;;;13.82;3.60;;;8.90;99.90;;;;;;4870465;29;20135;-90
2022/03/10 00:24:32;;;;;;;9.10;3.70;;;8.80;99.90;;;;;;4894651;29;20025;-90
2022/03/10 00:26:58;;;;;;;11.82;3.83;;;8.90;99.90;;;;;;4895723;29;20035;-90
2022/03/10 00:29:23;;;;;;;10.40;3.67;;;8.90;99.90;;;;;;4887510;29;20032;-90
2022/03/10 00:31:49;;;;;;;12.45;3.65;;;9.00;99.90;;;;;;4895424;29;20033;-90
2022/03/10 00:34:14;;;;;;;11.35;3.35;;;9.00;99.90;;;;;;4895672;29;20057;-91
2022/03/10 00:36:40;;;;;;;11.40;3.55;;;9.00;99.90;;;;;;4884793;29;20057;-91
2022/03/10 00:39:06;;;;;;;11.52;3.25;;;9.00;99.90;;;;;;4888308;29;20049;-91
2022/03/10 00:41:31;;;;;;;12.63;3.90;;;9.00;99.90;;;;;;4886596;29;20021;-90
2022/03/10 00:43:57;;;;;;;13.77;3.97;;;9.00;99.90;;;;;;4886333;29;20073;-91
2022/03/10 00:46:23;;;;;;;7.65;3.38;;;9.00;99.90;;;;;;4876670;29;20051;-89
2022/03/10 00:48:49;;;;;;;11.18;4.13;;;9.00;99.90;;;;;;4876666;29;20357;-89
2022/03/10 00:51:14;;;;;;;9.73;3.20;;;9.00;99.90;;;;;;4876508;29;20037;-90
2022/03/10 00:53:40;;;;;;;7.38;3.33;;;9.00;99.90;;;;;;4876306;29;20510;-90
2022/03/10 00:56:06;;;;;;;9.98;3.65;;;9.00;99.90;;;;;;4876387;29;20037;-91
2022/03/10 00:58:31;;;;;;;11.68;4.10;;;9.00;99.90;;;;;;4876625;29;20112;-90
2022/03/10 01:00:57;;;;;;;8.27;3.53;;;9.00;99.90;;;;;;4876330;29;20030;-91
2022/03/10 01:03:23;;;;;;;9.00;2.80;;;9.00;99.90;;;;;;4876200;29;20030;-90
2022/03/10 01:05:49;;;;;;;9.60;3.10;;;9.00;99.90;;;;;;4876133;29;20511;-92
2022/03/10 01:08:15;;;;;;;8.90;2.97;;;9.00;99.90;;;;;;4860986;29;20037;-90
2022/03/10 01:10:41;;;;;;;7.25;2.97;;;9.00;99.90;;;;;;4876416;29;20030;-89
2022/03/10 01:13:15;;;;;;;8.30;2.78;;;9.00;99.90;;;;;;4876762;29;20081;-90
2022/03/10 01:15:41;;;;;;;6.53;2.83;;;9.00;99.90;;;;;;4876742;29;20491;-91
2022/03/10 01:18:08;;;;;;;10.88;3.42;;;9.00;99.90;;;;;;4876262;29;20384;-90
2022/03/10 01:20:34;;;;;;;13.60;3.38;;;9.00;99.90;;;;;;4861209;29;20052;-90
2022/03/10 01:23:00;;;;;;;10.23;3.50;;;9.00;99.90;;;;;;4880053;29;20060;-90
2022/03/10 01:25:26;;;;;;;12.35;4.80;;;9.00;99.90;;;;;;4879138;29;20026;-90
2022/03/10 01:27:51;;;;;;;12.48;3.40;;;9.00;99.90;;;;;;4877193;29;20029;-91
2022/03/10 01:30:17;;;;;;;10.02;3.30;;;9.00;99.90;;;;;;4863884;29;20025;-91
2022/03/10 01:32:44;;;;;;;14.05;3.15;;;9.00;99.90;;;;;;4867989;29;20502;-90
2022/03/10 01:35:10;;;;;;;10.18;3.28;;;9.00;99.90;;;;;;4862158;29;20049;-90
2022/03/10 01:37:39;;;;;;;10.40;3.08;;;9.00;99.90;;;;;;4876009;29;20073;-91
2022/03/10 01:40:16;;;;;;;6.10;3.00;;;9.00;99.90;;;;;;4860152;29;20037;-92
2022/03/10 01:42:42;;;;;;;10.63;3.17;;;9.00;99.90;;;;;;4875530;29;20038;-90
2022/03/10 01:45:10;;;;;;;8.70;2.83;;;9.00;99.90;;;;;;4875955;29;20037;-90
2022/03/10 01:47:37;;;;;;;10.57;3.42;;;9.00;99.90;;;;;;4861253;29;20054;-90
2022/03/10 01:50:04;;;;;;;11.18;3.47;;;9.00;99.90;;;;;;4875538;29;20500;-90
2022/03/10 01:52:30;;;;;;;13.45;2.95;;;9.00;99.90;;;;;;4860142;29;20040;-91
2022/03/10 01:54:57;;;;;;;9.80;2.75;;;9.00;99.90;;;;;;4875255;29;20040;-90
2022/03/10 01:57:24;;;;;;;13.88;3.53;;;9.00;99.90;;;;;;4875711;29;20041;-90
2022/03/10 01:59:51;;;;;;;8.65;3.58;;;9.00;99.90;;;;;;4875470;29;20174;-90
2022/03/10 02:02:16;;;;;;;10.18;3.25;;;9.00;99.90;;;;;;4875463;29;20078;-91
2022/03/10 02:04:42;;;;;;;8.77;3.45;;;9.10;99.90;;;;;;4875674;29;20109;-89
2022/03/10 02:10:16;;;;;;;10.30;3.38;;;9.00;99.90;;;;;;4875582;29;20041;-90
2022/03/10 02:10:19;;;;;;;9.68;3.05;;;9.00;99.90;;;;;;4861344;29;20365;-89
2022/03/10 02:12:52;;;;;;;9.07;2.72;;;9.00;99.90;;;;;;4875706;29;20057;-90
2022/03/10 02:18:07;;;;;;;18.95;3.28;;;9.00;99.90;;;;;;4861229;29;20049;-89
2022/03/10 02:20:34;;;;;;;10.50;3.13;;;9.00;99.90;;;;;;4875350;29;20034;-91
2022/03/10 02:23:00;;;;;;;11.27;3.35;;;8.90;99.90;;;;;;4876233;29;20033;-91
2022/03/10 02:25:27;;;;;;;9.88;3.40;;;8.90;99.90;;;;;;4885409;29;20036;-90
2022/03/10 02:27:55;;;;;;;14.52;4.53;;;9.00;99.90;;;;;;4883036;29;20033;-91
2022/03/10 02:30:23;;;;;;;4.55;3.15;;;8.90;99.90;;;;;;4886264;29;20017;-90
2022/03/10 02:32:49;;;;;;;15.23;3.75;;;8.90;99.90;;;;;;4899126;29;20028;-90
2022/03/10 02:35:15;;;;;;;11.23;3.60;;;8.90;99.90;;;;;;4899010;29;20017;-89
2022/03/10 02:37:42;;;;;;;13.30;3.08;;;8.90;99.90;;;;;;4900196;29;20057;-91
2022/03/10 02:40:10;;;;;;;6.85;3.15;;;8.90;99.90;;;;;;4900372;29;20013;-90
2022/03/10 02:42:35;;;;;;;7.93;2.75;;;8.90;99.90;;;;;;4895666;29;20033;-90
2022/03/10 02:45:01;;;;;;;10.35;3.40;;;8.90;99.90;;;;;;4879855;29;20586;-89
2022/03/10 02:47:27;;;;;;;12.70;3.20;;;8.90;99.90;;;;;;4879881;29;20098;-90
2022/03/10 02:49:53;;;;;;;7.95;3.08;;;8.90;99.90;;;;;;4879232;29;20029;-90
2022/03/10 02:52:19;;;;;;;12.90;3.42;;;8.90;99.90;;;;;;4878731;29;20053;-90
2022/03/10 02:54:45;;;;;;;8.80;3.50;;;8.90;99.90;;;;;;4879110;29;20060;-91
2022/03/10 02:57:14;;;;;;;8.55;3.40;;;8.90;99.90;;;;;;4879207;29;20148;-91
2022/03/10 02:59:41;;;;;;;9.20;3.50;;;8.80;99.90;;;;;;4864359;29;20038;-90
2022/03/10 03:02:06;;;;;;;8.90;3.42;;;8.90;99.90;;;;;;4878602;29;20033;-89
2022/03/10 03:04:32;;;;;;;14.85;3.55;;;8.80;99.90;;;;;;4879853;29;20491;-90
2022/03/10 03:06:58;;;;;;;7.15;3.83;;;8.80;99.90;;;;;;4878879;29;20559;-90
2022/03/10 03:09:24;;;;;;;13.43;5.05;;;8.80;99.90;;;;;;4887287;29;20025;-91
2022/03/10 03:11:50;;;;;;;13.60;3.53;;;8.80;99.90;;;;;;4872644;29;20057;-91
2022/03/10 03:14:16;;;;;;;7.68;3.33;;;8.80;99.90;;;;;;4880994;29;20618;-91
2022/03/10 03:16:43;;;;;;;11.85;3.58;;;8.80;99.90;;;;;;4864163;29;20030;-90
2022/03/10 03:19:09;;;;;;;8.07;3.90;;;8.80;99.90;;;;;;4883998;29;20037;-91
2022/03/10 03:21:37;;;;;;;13.98;4.15;;;8.70;99.90;;;;;;4886828;29;20125;-91
2022/03/10 03:24:03;;;;;;;15.65;3.70;;;8.70;99.90;;;;;;4881769;29;20033;-90
2022/03/10 03:26:29;;;;;;;10.75;3.80;;;8.70;99.90;;;;;;4878521;29;20128;-90
2022/03/10 03:28:54;;;;;;;11.77;4.30;;;8.60;99.90;;;;;;4878541;29;20108;-90
2022/03/10 03:31:21;;;;;;;12.52;3.70;;;8.60;99.90;;;;;;4863989;29;20088;-90
2022/03/10 03:33:47;;;;;;;9.93;4.45;;;8.60;99.90;;;;;;4864244;29;20060;-90
2022/03/10 03:36:12;;;;;;;13.15;4.07;;;8.50;99.90;;;;;;4862905;29;20065;-90
2022/03/10 03:38:38;;;;;;;8.25;3.90;;;8.50;99.90;;;;;;4878477;29;20046;-90
2022/03/10 03:41:04;;;;;;;14.02;4.25;;;8.50;99.90;;;;;;4862636;29;20156;-89
2022/03/10 03:43:29;;;;;;;15.82;4.80;;;8.40;99.90;;;;;;4877852;29;20056;-90
2022/03/10 03:45:56;;;;;;;12.60;4.22;;;8.40;99.90;;;;;;4877841;29;20045;-91
2022/03/10 03:48:24;;;;;;;9.55;3.92;;;8.30;99.90;;;;;;4877454;29;20422;-91
2022/03/10 03:50:50;;;;;;;10.90;3.85;;;8.30;99.90;;;;;;4877992;29;20392;-91
2022/03/10 03:53:15;;;;;;;11.57;5.20;;;8.30;99.90;;;;;;4877879;29;20029;-91
2022/03/10 03:55:41;;;;;;;13.05;4.38;;;8.30;99.90;;;;;;4862356;29;20030;-90
2022/03/10 03:58:07;;;;;;;10.82;4.10;;;8.20;99.90;;;;;;4877610;29;20452;-91
2022/03/10 04:00:33;;;;;;;10.98;4.40;;;8.20;99.90;;;;;;4862696;29;20025;-90
2022/03/10 04:03:06;;;;;;;16.88;4.93;;;8.10;99.90;;;;;;4878157;29;20027;-91
2022/03/10 04:05:31;;;;;;;16.98;4.68;;;8.10;99.90;;;;;;4878053;29;20030;-91
2022/03/10 04:07:58;;;;;;;8.98;4.32;;;8.10;99.90;;;;;;4878443;29;20086;-92
2022/03/10 04:10:23;;;;;;;12.57;4.55;;;8.10;99.90;;;;;;4880070;29;20040;-90
2022/03/10 04:12:49;;;;;;;10.20;4.63;;;8.10;99.90;;;;;;4886454;29;20021;-90
2022/03/10 04:15:14;;;;;;;17.17;5.22;;;8.00;99.90;;;;;;4863477;29;20125;-91
2022/03/10 04:17:40;;;;;;;10.50;4.93;;;8.00;99.90;;;;;;4877517;29;20104;-91
2022/03/10 04:20:08;;;;;;;17.33;5.07;;;8.00;99.90;;;;;;4877508;29;20029;-90
2022/03/10 04:22:34;;;;;;;15.27;5.00;;;7.90;99.90;;;;;;4877581;29;20068;-90
2022/03/10 04:25:00;;;;;;;16.10;4.32;;;7.90;99.90;;;;;;4877524;29;20057;-90
2022/03/10 04:27:27;;;;;;;14.40;5.30;;;7.90;99.90;;;;;;4861833;29;20025;-92
2022/03/10 04:29:52;;;;;;;12.93;4.65;;;7.90;99.90;;;;;;4861967;29;20053;-91
2022/03/10 04:32:18;;;;;;;20.20;5.40;;;7.90;99.90;;;;;;4877278;29;20040;-91
2022/03/10 04:34:43;;;;;;;19.00;5.38;;;7.90;99.90;;;;;;4865466;29;20120;-91
2022/03/10 04:37:09;;;;;;;11.95;5.40;;;7.80;99.90;;;;;;4877102;29;20104;-91
2022/03/10 04:39:34;;;;;;;9.75;4.47;;;7.90;99.90;;;;;;4877086;29;20128;-91
2022/03/10 04:42:00;;;;;;;15.75;5.53;;;7.90;99.90;;;;;;4877978;29;20131;-90
2022/03/10 04:44:26;;;;;;;20.05;5.40;;;7.80;99.90;;;;;;4864267;29;20033;-90
2022/03/10 04:46:51;;;;;;;12.90;4.93;;;7.90;99.90;;;;;;4878446;29;20060;-90
2022/03/10 04:49:18;;;;;;;12.75;5.38;;;7.90;99.90;;;;;;4877664;29;20028;-92
2022/03/10 04:51:44;;;;;;;12.93;5.45;;;7.90;99.90;;;;;;4877670;29;20029;-90
2022/03/10 04:54:09;;;;;;;10.63;4.85;;;7.90;99.90;;;;;;4878407;29;20029;-90
2022/03/10 04:56:35;;;;;;;16.80;6.25;;;7.90;99.90;;;;;;4877158;29;20037;-89
2022/03/10 04:59:01;;;;;;;17.45;5.60;;;7.90;99.90;;;;;;4881461;29;20033;-92
2022/03/10 05:01:27;;;;;;;14.15;4.90;;;8.00;99.90;;;;;;4877425;29;20057;-90
2022/03/10 05:03:52;;;;;;;13.88;4.97;;;8.00;99.90;;;;;;4862631;29;20021;-91
2022/03/10 05:06:18;;;;;;;13.02;5.22;;;8.10;99.90;;;;;;4880979;29;20439;-90
2022/03/10 05:08:43;;;;;;;16.33;6.55;;;8.20;99.90;;;;;;4877857;29;20055;-90
2022/03/10 05:11:09;;;;;;;16.88;5.38;;;8.30;99.90;;;;;;4877243;29;20048;-90
2022/03/10 05:13:35;;;;;;;13.73;4.78;;;8.30;99.90;;;;;;4884392;29;20032;-90
2022/03/10 05:16:00;;;;;;;18.55;5.40;;;8.40;99.90;;;;;;4880766;29;20476;-91
2022/03/10 05:18:26;;;;;;;14.00;5.15;;;8.40;99.90;;;;;;4878228;29;20045;-90
2022/03/10 05:20:51;;;;;;;15.80;5.47;;;8.30;99.90;;;;;;4877963;29;20025;-91
2022/03/10 05:23:17;;;;;;;14.75;5.70;;;8.30;99.90;;;;;;4878759;29;20040;-90
2022/03/10 05:25:43;;;;;;;16.10;5.20;;;8.30;99.90;;;;;;4878144;29;20025;-91
2022/03/10 05:28:14;;;;;;;11.95;5.47;;;8.30;99.90;;;;;;4878412;29;20030;-90
2022/03/10 05:30:40;;;;;;;;;;;8.30;99.90;;;;;;4878346;29;20530;-92
2022/03/10 05:33:06;;;;;;;14.75;4.70;;;8.30;99.90;;;;;;4878673;29;20208;-91
2022/03/10 05:35:32;;;;;;;9.13;4.95;;;8.30;99.90;;;;;;4878578;29;20033;-91
2022/03/10 05:37:59;;;;;;;14.00;5.78;;;8.30;99.90;;;;;;4886660;29;20033;-89
2022/03/10 05:40:25;;;;;;;13.57;5.20;;;8.30;99.90;;;;;;4898961;29;20034;-91
2022/03/10 05:42:53;;;;;;;15.15;5.15;;;8.30;99.90;;;;;;4899617;29;20056;-90
2022/03/10 05:45:20;;;;;;;11.10;5.03;;;8.30;99.90;;;;;;4868438;29;20021;-89
2022/03/10 05:47:47;;;;;;;10.60;4.78;;;8.30;99.90;;;;;;4884147;29;20022;-90
2022/03/10 05:50:12;;;;;;;11.07;4.80;;;8.30;99.90;;;;;;4898279;29;20028;-89
2022/03/10 05:52:38;;;;;;;13.77;4.78;;;8.30;99.90;;;;;;4891655;29;20033;-91
2022/03/10 05:55:05;;;;;;;12.20;5.10;;;8.30;99.90;;;;;;4871011;29;20138;-90
2022/03/10 05:57:31;;;;;;;12.82;4.95;;;8.30;99.90;;;;;;4885919;29;20101;-90
2022/03/10 05:59:56;;;;;;;10.60;5.15;;;8.30;99.90;;;;;;4884682;29;20056;-92
2022/03/10 06:02:23;;;;;;;10.90;5.00;;;8.20;99.90;;;;;;4866970;29;20029;-91
2022/03/10 06:04:49;;;;;;;13.60;5.22;;;8.30;99.90;;;;;;4879577;29;20025;-90
2022/03/10 06:07:16;;;;;;;9.68;4.22;;;8.20;99.90;;;;;;4878712;29;20468;-91
2022/03/10 06:09:41;;;;;;;10.38;5.22;;;8.30;99.90;;;;;;4879559;29;20032;-92
2022/03/10 06:12:09;;;;;;;10.80;4.85;;;8.30;99.90;;;;;;4880352;29;20034;-91
2022/03/10 06:14:35;;;;;;;12.02;5.20;;;8.30;99.90;;;;;;4882517;29;20116;-90
2022/03/10 06:17:02;;;;;;;17.55;5.47;;;8.30;99.90;;;;;;4877685;29;20040;-90
2022/03/10 06:19:27;;;;;;;9.15;4.90;;;8.30;99.90;;;;;;4881424;29;20097;-90
2022/03/10 06:21:53;;;;;;;12.35;5.30;;;8.30;99.90;;;;;;4904225;29;20029;-91
2022/03/10 06:24:20;;;;;;;12.57;4.65;;;8.40;99.90;;;;;;4896409;29;20036;-91
2022/03/10 06:26:46;;;;;;;11.07;5.30;;;8.40;99.90;;;;;;4869722;29;20025;-88
2022/03/10 06:29:13;;;;;;;10.15;5.00;;;8.40;99.90;;;;;;4873244;29;20025;-89
2022/03/10 06:31:40;;;;;;;8.60;5.00;;;8.40;99.90;;;;;;4878033;29;20033;-90
2022/03/10 06:34:06;;;;;;;10.57;5.45;;;8.40;99.90;;;;;;4875582;29;20061;-89
2022/03/10 06:36:32;;;;;;;11.55;5.10;;;8.40;99.90;;;;;;4873876;29;20056;-90
2022/03/10 06:38:57;;;;;;;11.38;5.25;;;8.40;99.90;;;;;;4875190;29;20033;-91
2022/03/10 06:41:23;;;;;;;17.40;5.95;;;8.40;99.90;;;;;;4865577;29;20111;-91
2022/03/10 06:43:49;;;;;;;9.95;5.38;;;8.40;99.90;;;;;;4872308;29;20117;-89
2022/03/10 06:46:15;;;;;;;10.70;4.95;;;8.40;99.90;;;;;;4877255;29;20052;-89
2022/03/10 06:48:40;;;;;;;11.30;5.15;;;8.40;99.90;;;;;;4874679;29;20061;-89
2022/03/10 06:51:07;;;;;;;12.30;4.38;;;8.40;99.90;;;;;;4877961;29;20061;-91
2022/03/10 06:53:33;;;;;;;12.52;5.43;;;8.40;99.90;;;;;;4868920;29;20032;-90
2022/03/10 06:55:58;;;;;;;11.30;5.22;;;8.40;99.90;;;;;;4872334;29;20086;-91
2022/03/10 06:58:24;;;;;;;12.45;5.57;;;8.40;99.90;;;;;;4869410;29;20060;-89
2022/03/10 07:00:50;;;;;;;16.42;5.80;;;8.30;99.90;;;;;;4871658;29;20021;-91
2022/03/10 07:03:16;;;;;;;8.65;4.70;;;8.30;99.90;;;;;;4896038;29;20037;-89
2022/03/10 07:05:41;;;;;;;11.38;5.10;;;8.30;99.90;;;;;;4876442;29;20028;-89
2022/03/10 07:08:08;;;;;;;12.27;5.68;;;8.30;99.90;;;;;;4880084;29;20021;-90
2022/03/10 07:10:33;;;;;;;10.52;5.00;;;8.30;99.90;;;;;;4873870;29;20072;-90
2022/03/10 07:12:59;;;;;;;10.57;5.55;;;8.20;99.90;;;;;;4875070;29;20029;-90
2022/03/10 07:15:25;;;;;;;12.98;4.78;;;8.20;99.90;;;;;;4872923;29;20033;-89
2022/03/10 07:17:51;;;;;;;14.35;5.43;;;8.20;99.90;;;;;;4870143;29;20046;-90
2022/03/10 07:20:18;;;;;;;13.02;5.35;;;8.20;99.90;;;;;;4873834;29;20036;-90
2022/03/10 07:22:45;;;;;;;13.75;5.10;;;8.10;99.90;;;;;;4870882;29;20026;-89
2022/03/10 07:25:11;;;;;;;14.60;5.68;;;8.10;99.90;;;;;;4873795;29;20026;-90
2022/03/10 07:27:38;;;;;;;12.38;5.72;;;8.10;99.90;;;;;;4888453;29;20080;-89
2022/03/10 07:30:04;;;;;;;10.23;5.65;;;8.10;99.90;;;;;;4886102;29;20048;-90
2022/03/10 07:32:30;;;;;;;11.27;5.13;;;8.10;99.90;;;;;;4887035;29;20033;-89
2022/03/10 07:34:56;;;;;;;9.32;5.13;;;8.10;99.90;;;;;;4885101;29;20026;-91
2022/03/10 07:37:21;;;;;;;13.20;5.40;;;8.10;99.90;;;;;;4875463;29;20037;-89
2022/03/10 07:39:47;;;;;;;9.43;5.05;;;8.10;99.90;;;;;;4883467;29;20464;-90
2022/03/10 07:42:15;;;;;;;10.90;5.35;;;8.00;99.90;;;;;;4878359;29;20037;-91
2022/03/10 07:44:41;;;;;;;11.02;5.53;;;8.10;99.90;;;;;;4873916;29;20028;-89
2022/03/10 07:47:07;;;;;;;12.48;5.65;;;8.10;99.90;;;;;;4874241;29;20041;-89
2022/03/10 07:49:32;;;;;;;11.70;5.28;;;8.10;99.90;;;;;;4888061;29;20128;-89
2022/03/10 07:51:59;;;;;;;12.63;5.93;;;8.10;99.90;;;;;;4877415;29;20029;-89
2022/03/10 07:54:25;;;;;;;13.32;5.63;;;8.10;99.90;;;;;;4871956;29;20116;-89
2022/03/10 07:56:51;;;;;;;12.15;5.60;;;8.10;99.90;;;;;;4871576;29;20157;-89
2022/03/10 07:59:17;;;;;;;10.40;5.05;;;8.10;99.90;;;;;;4872166;29;20390;-90
2022/03/10 08:01:43;;;;;;;15.93;5.55;;;8.10;99.90;;;;;;4872260;29;20128;-90
2022/03/10 08:04:08;;;;;;;11.70;4.57;;;8.10;99.90;;;;;;4887309;29;20483;-89
2022/03/10 08:06:34;;;;;;;12.15;5.72;;;8.20;99.90;;;;;;4868351;29;20089;-89
2022/03/10 08:09:02;;;;;;;14.25;5.95;;;8.20;99.90;;;;;;4862460;29;20037;-89
2022/03/10 08:11:28;;;;;;;9.68;5.13;;;8.30;99.90;;;;;;4861716;29;20556;-89
2022/03/10 08:13:54;;;;;;;16.25;5.68;;;8.30;99.90;;;;;;4861902;29;20124;-90
2022/03/10 08:16:20;;;;;;;15.77;5.45;;;8.40;99.90;;;;;;4861699;29;20025;-88
2022/03/10 08:18:49;;;;;;;11.27;5.63;;;8.40;99.90;;;;;;4865704;29;20033;-91
2022/03/10 08:21:15;;;;;;;12.02;5.43;;;8.50;99.90;;;;;;4886945;29;20085;-89
2022/03/10 08:23:42;;;;;;;10.30;5.30;;;8.50;99.90;;;;;;4876993;29;20064;-90
2022/03/10 08:26:08;;;;;;;9.95;4.97;;;8.60;99.90;;;;;;4876925;29;20037;-89
2022/03/10 08:28:34;;;;;;;11.75;5.85;;;8.60;99.90;;;;;;4877677;29;20029;-90
2022/03/10 08:31:02;;;;;;;11.90;4.93;;;8.70;99.90;;;;;;4865082;29;20285;-89
2022/03/10 08:33:28;;;;;;;8.90;5.03;;;8.70;99.90;;;;;;4879193;29;20611;-88
2022/03/10 08:35:53;;;;;;;10.10;5.25;;;8.80;99.90;;;;;;4883503;29;20030;-89
2022/03/10 08:38:19;;;;;;;8.65;3.78;;;8.80;99.90;;;;;;4884511;29;20539;-90
2022/03/10 08:40:45;;;;;;;13.68;4.90;;;8.80;99.90;;;;;;4884040;29;20029;-90
2022/03/10 08:43:12;;;;;;;17.88;5.57;;;8.80;99.90;;;;;;4886263;29;20033;-90
2022/03/10 08:45:38;;;;;;;12.30;4.85;;;8.90;99.90;;;;;;4905349;29;20064;-89
2022/03/10 08:48:05;;;;;;;12.80;5.00;;;8.90;99.90;;;;;;4901038;29;20041;-90
2022/03/10 08:50:30;;;;;;;13.07;5.40;;;8.90;99.90;;;;;;4904032;29;20030;-88
2022/03/10 08:52:56;;;;;;;10.70;4.95;;;8.90;99.90;;;;;;4907565;29;20048;-89
2022/03/10 08:55:22;;;;;;;13.38;5.18;;;9.00;99.90;;;;;;4905179;29;20041;-89
2022/03/10 08:57:48;;;;;;;10.82;5.00;;;9.00;99.90;;;;;;4902298;29;20033;-88
2022/03/10 09:00:14;;;;;;;13.38;5.80;;;9.00;99.90;;;;;;4886503;29;20032;-88
2022/03/10 09:02:41;;;;;;;16.88;6.25;;;9.00;99.90;;;;;;4882653;29;20017;-89
2022/03/10 09:05:08;;;;;;;6.80;3.22;;;9.00;99.90;;;;;;4887141;29;20039;-90
2022/03/10 09:07:35;;;;;;;11.25;5.05;;;9.10;99.90;;;;;;4884545;29;20040;-89
2022/03/10 09:10:01;;;;;;;12.02;5.35;;;9.10;99.90;;;;;;4871512;29;20443;-88
2022/03/10 09:12:28;;;;;;;13.45;5.00;;;9.20;99.90;;;;;;4870392;29;20491;-88
2022/03/10 09:14:53;;;;;;;8.20;4.20;;;9.20;99.90;;;;;;4868466;29;20120;-88
2022/03/10 09:17:19;;;;;;;9.73;4.18;;;9.40;99.90;;;;;;4885959;29;20112;-88
2022/03/10 09:19:45;;;;;;;15.38;4.53;;;9.40;99.90;;;;;;4870022;29;20053;-88
2022/03/10 09:22:11;;;;;;;11.77;4.65;;;9.50;99.90;;;;;;4866445;29;20503;-87
2022/03/10 09:24:36;;;;;;;8.43;4.55;;;9.60;99.90;;;;;;4873873;29;20025;-88
2022/03/10 09:27:02;;;;;;;12.05;5.13;;;9.60;99.90;;;;;;4869213;29;20041;-88
2022/03/10 09:29:28;;;;;;;9.43;4.30;;;9.70;99.90;;;;;;4887336;29;20100;-89
2022/03/10 09:31:54;;;;;;;9.40;4.40;;;9.70;99.90;;;;;;4886545;29;20432;-89
2022/03/10 09:34:19;;;;;;;9.50;3.95;;;9.70;99.90;;;;;;4886814;29;20028;-87
2022/03/10 09:36:45;;;;;;;10.77;4.90;;;9.70;99.90;;;;;;4870890;29;20056;-87
2022/03/10 09:39:11;;;;;;;8.50;3.65;;;9.80;99.90;;;;;;4862979;29;20523;-88
2022/03/10 09:41:39;;;;;;;11.13;3.60;;;9.80;99.90;;;;;;4860620;29;20093;-87
2022/03/10 09:44:19;;;;;;;8.75;3.08;;;9.90;99.90;;;;;;4867624;29;20041;-88
2022/03/10 09:46:52;;;;;;;9.37;3.77;;;9.90;99.90;;;;;;4872145;29;20183;-88
2022/03/10 09:49:21;;;;;;;9.02;3.47;;;10.00;99.90;;;;;;4876111;29;20278;-89
2022/03/10 09:51:49;;;;;;;9.35;3.17;;;10.10;99.90;;;;;;4896103;29;20029;-89
2022/03/10 09:54:15;;;;;;;7.13;3.55;;;10.20;99.90;;;;;;4878543;29;20446;-90
2022/03/10 09:56:42;;;;;;;10.15;3.53;;;10.40;99.90;;;;;;4887152;29;20044;-90
2022/03/10 09:59:09;;;;;;;8.55;2.75;;;10.50;99.90;;;;;;4890454;29;20089;-90
2022/03/10 10:01:35;;;;;;;5.82;2.72;;;10.60;99.90;;;;;;4897526;29;20040;-90
2022/03/10 10:04:01;;;;;;;5.45;2.78;;;10.60;99.90;;;;;;4899067;29;20036;-89
2022/03/10 10:06:27;;;;;;;6.80;3.25;;;10.60;99.90;;;;;;4895801;29;20132;-90
2022/03/10 10:08:57;;;;;;;7.63;2.53;;;10.60;99.90;;;;;;4898774;29;20052;-90
2022/03/10 10:11:33;;;;;;;6.45;2.55;;;10.60;99.90;;;;;;4897998;29;20033;-89
2022/03/10 10:13:59;;;;;;;5.32;2.70;;;10.60;99.90;;;;;;4883587;29;20037;-90
2022/03/10 10:16:25;;;;;;;7.97;3.28;;;10.50;99.90;;;;;;4898522;29;20472;-89
2022/03/10 10:18:56;;;;;;;9.23;3.20;;;10.50;99.90;;;;;;4898500;29;20041;-90
2022/03/10 10:21:22;;;;;;;;;;;10.60;99.90;;;;;;4898276;29;20815;-90
2022/03/10 10:23:50;;;;;;;9.82;2.80;;;10.60;99.90;;;;;;4881502;29;19964;-90
2022/03/10 10:26:16;;;;;;;7.95;3.05;;;10.70;99.90;;;;;;4884985;29;20037;-89
2022/03/10 10:28:43;;;;;;;6.30;2.80;;;10.80;99.90;;;;;;4882671;29;20046;-90
2022/03/10 10:31:17;;;;;;;4.93;2.25;;;10.80;99.90;;;;;;4883529;29;20487;-90
2022/03/10 10:33:59;;;;;;;7.95;3.17;;;10.90;99.90;;;;;;4883199;29;20029;-90
2022/03/10 10:36:27;;;;;;;7.00;2.90;;;11.00;99.90;;;;;;4882599;29;20029;-89
2022/03/10 10:39:16;;;;;;;7.53;3.05;;;11.00;99.90;;;;;;4876363;29;20109;-89
2022/03/10 10:41:47;;;;;;;6.88;3.20;;;11.10;99.90;;;;;;4873059;29;20038;-90
2022/03/10 10:44:21;;;;;;;5.70;2.58;;;11.30;99.90;;;;;;4877003;29;20071;-91
2022/03/10 10:46:58;;;;;;;6.75;3.20;;;11.50;99.90;;;;;;4870177;29;20049;-89
2022/03/10 10:49:24;;;;;;;10.50;2.65;;;11.70;99.90;;;;;;4881735;29;20051;-89
2022/03/10 10:51:54;;;;;;;5.05;2.08;;;11.70;99.90;;;;;;4866458;29;20038;-90
2022/03/10 10:54:25;;;;;;;9.80;3.00;;;11.80;99.90;;;;;;4862524;29;20141;-89
2022/03/10 10:57:02;;;;;;;4.88;2.38;;;11.80;99.90;;;;;;4862526;29;20084;-91
2022/03/10 10:59:43;;;;;;;7.53;2.70;;;11.70;99.90;;;;;;4868051;29;20456;-90
2022/03/10 11:02:11;;;;;;;6.07;2.40;;;11.70;99.90;;;;;;4878276;29;20057;-91
2022/03/10 11:04:42;;;;;;;7.35;2.90;;;11.60;99.90;;;;;;4864229;29;20108;-90
2022/03/10 11:07:09;;;;;;;;;;;11.50;99.90;;;;;;4866853;29;20125;-90
2022/03/10 11:09:36;;;;;;;10.38;2.85;;;11.50;99.90;;;;;;4862927;29;19908;-90
2022/03/10 11:12:02;;;;;;;6.68;2.97;;;11.40;99.90;;;;;;4862664;29;20068;-89
2022/03/10 11:14:31;;;;;;;9.05;2.40;;;11.50;99.90;;;;;;4898695;29;20034;-89
2022/03/10 11:16:58;;;;;;;6.25;2.75;;;11.60;99.90;;;;;;4866640;29;20040;-89
2022/03/10 11:19:26;;;;;;;10.75;3.15;;;11.70;99.90;;;;;;4862129;29;20036;-89
2022/03/10 11:22:27;;;;;;;11.07;3.25;;;11.70;99.90;;;;;;4866294;29;20188;-89
2022/03/10 11:25:26;;;;;;;3.22;1.77;;;11.80;99.90;;;;;;4871282;29;20037;-89
2022/03/10 11:28:01;;;;;;;3.58;2.15;;;11.90;99.90;;;;;;4877087;29;20037;-90
2022/03/10 11:30:29;;;;;;;9.98;2.17;;;11.80;99.90;;;;;;4861957;29;20029;-89
2022/03/10 11:33:09;;;;;;;4.60;2.58;;;11.80;99.90;;;;;;4866526;29;20028;-89
2022/03/10 11:35:42;;;;;;;8.30;2.13;;;11.80;99.90;;;;;;4877510;29;20104;-90
2022/03/10 11:38:10;;;;;;;7.30;2.35;;;11.80;99.90;;;;;;4892601;29;20136;-90
2022/03/10 11:40:56;;;;;;;6.60;3.13;;;11.80;99.90;;;;;;4882016;29;20025;-89
2022/03/10 11:43:25;;;;;;;6.13;2.10;;;11.80;99.90;;;;;;4879313;29;20078;-89
2022/03/10 11:45:51;;;;;;;8.35;1.92;;;11.90;99.90;;;;;;4886870;29;20057;-89
2022/03/10 11:48:33;;;;;;;9.07;2.30;;;12.00;99.90;;;;;;4896001;29;20029;-89
2022/03/10 11:51:07;;;;;;;4.60;1.60;;;12.20;99.90;;;;;;4885023;29;20033;-87
2022/03/10 11:53:54;;;;;;;5.78;1.90;;;12.40;99.90;;;;;;4891544;29;20124;-88
2022/03/10 11:56:32;;;;;;;3.15;1.77;;;12.50;99.90;;;;;;4898726;29;20036;-88
2022/03/10 11:59:22;;;;;;;5.22;1.80;;;12.60;99.90;;;;;;4894916;29;20081;-90
2022/03/10 12:01:47;;;;;;;6.22;2.38;;;12.80;99.90;;;;;;4895254;29;20080;-88
2022/03/10 12:04:18;;;;;;;5.28;1.77;;;12.90;99.90;;;;;;4883405;29;20033;-88
2022/03/10 12:06:49;;;;;;;3.60;1.42;;;13.10;99.90;;;;;;4895938;29;20029;-89
2022/03/10 12:09:38;;;;;;;6.30;2.03;;;13.30;99.80;;;;;;4901671;29;20033;-88
2022/03/10 12:12:24;;;;;;;5.38;1.70;;;13.60;98.40;;;;;;4879402;29;20108;-88
2022/03/10 12:14:55;;;;;;;4.55;1.50;;;13.80;96.60;;;;;;4894894;29;20037;-88
2022/03/10 12:17:44;;;;;;;3.40;1.70;;;13.90;94.70;;;;;;4894445;29;20041;-88
2022/03/10 12:20:14;;;;;;;10.45;2.03;;;13.90;94.10;;;;;;4860307;29;20044;-88
2022/03/10 12:22:39;;;;;;;4.93;1.58;;;13.90;94.40;;;;;;4860924;29;20476;-88
2022/03/10 12:25:22;;;;;;;7.35;1.40;;;14.00;94.20;;;;;;4861469;29;20040;-90
2022/03/10 12:27:53;;;;;;;8.02;1.80;;;14.10;93.80;;;;;;4874011;29;20089;-91
2022/03/10 12:30:27;;;;;;;4.35;1.50;;;14.30;93.00;;;;;;4870332;29;20053;-90
2022/03/10 12:32:55;;;;;;;7.50;1.38;;;14.60;92.30;;;;;;4860351;29;20455;-90
2022/03/10 12:35:26;;;;;;;2.90;1.05;;;14.80;91.20;;;;;;4863704;29;20059;-90
2022/03/10 12:37:52;;;;;;;6.63;1.30;;;14.90;90.60;;;;;;4893630;29;20128;-89
2022/03/10 12:40:19;;;;;;;4.28;1.20;;;15.10;90.00;;;;;;4895305;29;20120;-91
2022/03/10 12:42:46;;;;;;;2.22;1.02;;;15.10;87.80;;;;;;4895191;29;20089;-90
2022/03/10 12:45:17;;;;;;;2.95;0.90;;;15.00;86.10;;;;;;4895292;29;20037;-90
2022/03/10 12:47:48;;;;;;;4.35;1.40;;;14.80;86.60;;;;;;4894687;29;20057;-90
2022/03/10 12:50:14;;;;;;;4.60;1.17;;;14.80;87.80;;;;;;4894822;29;20041;-90
2022/03/10 12:52:42;;;;;;;4.10;1.70;;;14.90;88.20;;;;;;4894696;29;20053;-90
2022/03/10 12:55:10;;;;;;;6.78;2.05;;;15.00;87.50;;;;;;4894817;29;20040;-90